sensor_id;sensor_type;location;lat;lon;timestamp;pressure;altitude;pressure_sealevel;temperature;humidity
11041;BME280;5573;49.592;8.662;2023-10-09T00:00:09;100450.41;;;13.81;90.69
11041;BME280;5573;49.592;8.662;2023-10-09T00:02:55;100459.09;;;13.76;90.78
11041;BME280;5573;49.592;8.662;2023-10-09T00:05:25;100461.31;;;13.79;90.75
11041;BME280;5573;49.592;8.662;2023-10-09T00:08:13;100450.03;;;13.71;91.02
11041;BME280;5573;49.592;8.662;2023-10-09T00:10:46;100458.50;;;13.68;91.50
11041;BME280;5573;49.592;8.662;2023-10-09T00:13:20;100448.81;;;13.73;91.45
11041;BME280;5573;49.592;8.662;2023-10-09T00:15:57;100457.28;;;13.64;91.86
11041;BME280;5573;49.592;8.662;2023-10-09T00:18:28;100444.25;;;13.74;91.41
11041;BME280;5573;49.592;8.662;2023-10-09T00:21:01;100437.28;;;13.73;91.60
11041;BME280;5573;49.592;8.662;2023-10-09T00:23:39;100444.88;;;13.76;91.09
11041;BME280;5573;49.592;8.662;2023-10-09T00:26:09;100445.47;;;13.78;91.56
11041;BME280;5573;49.592;8.662;2023-10-09T00:28:46;100443.53;;;13.91;90.98
11041;BME280;5573;49.592;8.662;2023-10-09T00:31:16;100449.03;;;13.96;90.92
11041;BME280;5573;49.592;8.662;2023-10-09T00:33:53;100443.31;;;13.93;90.77
11041;BME280;5573;49.592;8.662;2023-10-09T00:36:23;100444.19;;;14.12;90.79
11041;BME280;5573;49.592;8.662;2023-10-09T00:38:55;100435.94;;;14.13;90.62
11041;BME280;5573;49.592;8.662;2023-10-09T00:41:27;100434.28;;;14.43;88.34
11041;BME280;5573;49.592;8.662;2023-10-09T00:43:55;100427.81;;;14.51;87.88
11041;BME280;5573;49.592;8.662;2023-10-09T00:46:27;100428.63;;;14.51;88.28
11041;BME280;5573;49.592;8.662;2023-10-09T00:48:56;100431.91;;;14.53;88.46
11041;BME280;5573;49.592;8.662;2023-10-09T00:51:27;100357.44;;;14.13;88.37
11041;BME280;5573;49.592;8.662;2023-10-09T00:54:05;100376.19;;;14.13;88.34
11041;BME280;5573;49.592;8.662;2023-10-09T00:56:41;100423.75;;;14.42;89.26
11041;BME280;5573;49.592;8.662;2023-10-09T00:59:15;100421.25;;;14.47;89.24
11041;BME280;5573;49.592;8.662;2023-10-09T01:01:48;100421.44;;;14.45;88.75
11041;BME280;5573;49.592;8.662;2023-10-09T01:04:25;100417.50;;;14.48;89.26
11041;BME280;5573;49.592;8.662;2023-10-09T01:06:56;100416.41;;;14.55;88.36
11041;BME280;5573;49.592;8.662;2023-10-09T01:09:35;100415.97;;;14.59;88.58
11041;BME280;5573;49.592;8.662;2023-10-09T01:12:04;100418.72;;;14.70;88.14
11041;BME280;5573;49.592;8.662;2023-10-09T01:14:34;100413.75;;;14.74;87.74
11041;BME280;5573;49.592;8.662;2023-10-09T01:17:05;100416.09;;;14.64;88.65
11041;BME280;5573;49.592;8.662;2023-10-09T01:19:55;100409.19;;;14.74;87.53
11041;BME280;5573;49.592;8.662;2023-10-09T01:22:30;100407.31;;;14.75;87.57
11041;BME280;5573;49.592;8.662;2023-10-09T01:24:59;100408.22;;;14.69;88.63
11041;BME280;5573;49.592;8.662;2023-10-09T01:27:27;100401.97;;;14.75;87.83
11041;BME280;5573;49.592;8.662;2023-10-09T01:29:59;100399.34;;;14.68;87.86
11041;BME280;5573;49.592;8.662;2023-10-09T01:32:28;100395.41;;;14.71;88.12
11041;BME280;5573;49.592;8.662;2023-10-09T01:34:56;100390.13;;;14.82;87.26
11041;BME280;5573;49.592;8.662;2023-10-09T01:37:24;100388.09;;;14.78;87.46
11041;BME280;5573;49.592;8.662;2023-10-09T01:39:57;100387.88;;;14.79;87.36
11041;BME280;5573;49.592;8.662;2023-10-09T01:42:27;100389.22;;;14.70;87.94
11041;BME280;5573;49.592;8.662;2023-10-09T01:45:02;100386.53;;;14.70;88.40
11041;BME280;5573;49.592;8.662;2023-10-09T01:47:44;100383.94;;;14.82;87.15
11041;BME280;5573;49.592;8.662;2023-10-09T01:50:18;100371.59;;;14.63;88.04
11041;BME280;5573;49.592;8.662;2023-10-09T01:52:48;100377.78;;;14.81;86.79
11041;BME280;5573;49.592;8.662;2023-10-09T01:55:18;100362.91;;;14.79;87.32
11041;BME280;5573;49.592;8.662;2023-10-09T01:57:57;100368.06;;;14.98;86.34
11041;BME280;5573;49.592;8.662;2023-10-09T02:00:32;100339.25;;;14.76;86.77
11041;BME280;5573;49.592;8.662;2023-10-09T02:03:08;100369.41;;;14.89;86.30
11041;BME280;5573;49.592;8.662;2023-10-09T02:05:41;100365.38;;;15.28;83.97
11041;BME280;5573;49.592;8.662;2023-10-09T02:08:09;100375.84;;;15.18;85.54
11041;BME280;5573;49.592;8.662;2023-10-09T02:10:37;100377.19;;;15.09;85.79
11041;BME280;5573;49.592;8.662;2023-10-09T02:13:07;100376.25;;;15.03;86.17
11041;BME280;5573;49.592;8.662;2023-10-09T02:15:38;100379.25;;;14.95;85.86
11041;BME280;5573;49.592;8.662;2023-10-09T02:18:14;100379.16;;;15.02;86.12
11041;BME280;5573;49.592;8.662;2023-10-09T02:20:47;100261.19;;;14.29;86.37
11041;BME280;5573;49.592;8.662;2023-10-09T02:23:22;100382.59;;;14.91;86.75
11041;BME280;5573;49.592;8.662;2023-10-09T02:26:07;100380.06;;;14.78;87.75
11041;BME280;5573;49.592;8.662;2023-10-09T02:28:38;100383.84;;;14.70;87.45
11041;BME280;5573;49.592;8.662;2023-10-09T02:31:11;100378.56;;;14.64;87.96
11041;BME280;5573;49.592;8.662;2023-10-09T02:33:39;100379.47;;;14.57;87.87
11041;BME280;5573;49.592;8.662;2023-10-09T02:36:08;100372.38;;;14.63;87.68
11041;BME280;5573;49.592;8.662;2023-10-09T02:38:36;100378.56;;;14.64;88.21
11041;BME280;5573;49.592;8.662;2023-10-09T02:41:07;100375.69;;;14.65;88.11
11041;BME280;5573;49.592;8.662;2023-10-09T02:43:51;100377.16;;;14.61;88.56
11041;BME280;5573;49.592;8.662;2023-10-09T02:46:22;100378.72;;;14.50;88.64
11041;BME280;5573;49.592;8.662;2023-10-09T02:48:56;100379.66;;;14.38;89.18
11041;BME280;5573;49.592;8.662;2023-10-09T02:51:26;100357.22;;;14.14;88.59
11041;BME280;5573;49.592;8.662;2023-10-09T02:54:02;100382.13;;;14.39;87.84
11041;BME280;5573;49.592;8.662;2023-10-09T02:56:46;100379.19;;;14.47;87.56
11041;BME280;5573;49.592;8.662;2023-10-09T02:59:23;100355.72;;;14.61;85.40
11041;BME280;5573;49.592;8.662;2023-10-09T03:01:51;100374.00;;;15.00;81.19
11041;BME280;5573;49.592;8.662;2023-10-09T03:04:20;100368.28;;;15.57;76.62
11041;BME280;5573;49.592;8.662;2023-10-09T03:06:51;100364.00;;;15.56;77.57
11041;BME280;5573;49.592;8.662;2023-10-09T03:09:20;100368.34;;;15.80;75.27
11041;BME280;5573;49.592;8.662;2023-10-09T03:11:55;100363.91;;;15.74;76.24
11041;BME280;5573;49.592;8.662;2023-10-09T03:14:31;100363.84;;;16.04;73.69
11041;BME280;5573;49.592;8.662;2023-10-09T03:17:02;100362.28;;;15.84;74.76
11041;BME280;5573;49.592;8.662;2023-10-09T03:19:32;100357.69;;;15.62;77.02
11041;BME280;5573;49.592;8.662;2023-10-09T03:22:05;100340.44;;;15.39;76.04
11041;BME280;5573;49.592;8.662;2023-10-09T03:24:37;100363.75;;;15.57;75.54
11041;BME280;5573;49.592;8.662;2023-10-09T03:27:06;100359.34;;;15.63;76.30
11041;BME280;5573;49.592;8.662;2023-10-09T03:29:35;100367.94;;;15.53;75.48
11041;BME280;5573;49.592;8.662;2023-10-09T03:32:03;100364.59;;;15.69;75.54
11041;BME280;5573;49.592;8.662;2023-10-09T03:34:33;100359.22;;;15.69;75.10
11041;BME280;5573;49.592;8.662;2023-10-09T03:37:00;100355.16;;;15.67;76.17
11041;BME280;5573;49.592;8.662;2023-10-09T03:39:32;100356.38;;;15.52;77.64
11041;BME280;5573;49.592;8.662;2023-10-09T03:42:05;100356.63;;;15.51;77.35
11041;BME280;5573;49.592;8.662;2023-10-09T03:44:39;100351.66;;;15.36;79.66
11041;BME280;5573;49.592;8.662;2023-10-09T03:47:08;100353.63;;;15.11;82.14
11041;BME280;5573;49.592;8.662;2023-10-09T03:49:38;100352.13;;;15.15;80.58
11041;BME280;5573;49.592;8.662;2023-10-09T03:52:06;100348.50;;;15.10;81.13
11041;BME280;5573;49.592;8.662;2023-10-09T03:54:35;100360.28;;;15.09;81.46
11041;BME280;5573;49.592;8.662;2023-10-09T03:57:05;100361.97;;;14.91;82.69
11041;BME280;5573;49.592;8.662;2023-10-09T03:59:32;100358.59;;;14.78;83.04
11041;BME280;5573;49.592;8.662;2023-10-09T04:02:02;100352.91;;;15.04;79.50
11041;BME280;5573;49.592;8.662;2023-10-09T04:04:31;100352.81;;;14.81;83.39
11041;BME280;5573;49.592;8.662;2023-10-09T04:07:00;100357.66;;;14.72;83.44
11041;BME280;5573;49.592;8.662;2023-10-09T04:09:28;100354.13;;;14.72;84.39
11041;BME280;5573;49.592;8.662;2023-10-09T04:12:06;100356.28;;;14.63;84.21
11041;BME280;5573;49.592;8.662;2023-10-09T04:14:52;100342.84;;;14.70;84.16
11041;BME280;5573;49.592;8.662;2023-10-09T04:17:26;100340.66;;;14.60;83.76
11041;BME280;5573;49.592;8.662;2023-10-09T04:20:02;100338.50;;;14.50;84.38
11041;BME280;5573;49.592;8.662;2023-10-09T04:23:13;100344.44;;;14.34;86.47
11041;BME280;5573;49.592;8.662;2023-10-09T04:25:43;100352.28;;;14.36;86.74
11041;BME280;5573;49.592;8.662;2023-10-09T04:28:16;100351.47;;;14.35;86.57
11041;BME280;5573;49.592;8.662;2023-10-09T04:30:46;100333.63;;;14.23;86.69
11041;BME280;5573;49.592;8.662;2023-10-09T04:33:22;100327.75;;;14.32;85.40
11041;BME280;5573;49.592;8.662;2023-10-09T04:36:02;100327.47;;;14.40;85.26
11041;BME280;5573;49.592;8.662;2023-10-09T04:38:43;100332.50;;;14.30;85.80
11041;BME280;5573;49.592;8.662;2023-10-09T04:41:22;100346.19;;;14.22;86.90
11041;BME280;5573;49.592;8.662;2023-10-09T04:43:59;100345.28;;;14.10;87.95
11041;BME280;5573;49.592;8.662;2023-10-09T04:46:48;100346.97;;;14.04;87.88
11041;BME280;5573;49.592;8.662;2023-10-09T04:49:31;100343.75;;;13.96;88.11
11041;BME280;5573;49.592;8.662;2023-10-09T04:52:17;100348.53;;;13.94;88.14
11041;BME280;5573;49.592;8.662;2023-10-09T04:55:17;100353.22;;;13.98;88.26
11041;BME280;5573;49.592;8.662;2023-10-09T04:57:47;100357.69;;;14.04;87.49
11041;BME280;5573;49.592;8.662;2023-10-09T05:00:28;100355.25;;;14.03;87.80
11041;BME280;5573;49.592;8.662;2023-10-09T05:03:29;100356.50;;;14.00;88.31
11041;BME280;5573;49.592;8.662;2023-10-09T05:06:12;100350.75;;;13.97;88.79
11041;BME280;5573;49.592;8.662;2023-10-09T05:08:48;100352.69;;;13.90;88.81
11041;BME280;5573;49.592;8.662;2023-10-09T05:11:16;100361.97;;;13.87;88.94
11041;BME280;5573;49.592;8.662;2023-10-09T05:14:01;100358.09;;;13.83;89.52
11041;BME280;5573;49.592;8.662;2023-10-09T05:16:38;100331.66;;;13.69;89.26
11041;BME280;5573;49.592;8.662;2023-10-09T05:19:21;100363.84;;;13.87;89.93
11041;BME280;5573;49.592;8.662;2023-10-09T05:22:11;100365.91;;;13.85;89.64
11041;BME280;5573;49.592;8.662;2023-10-09T05:24:57;100367.41;;;13.81;90.41
11041;BME280;5573;49.592;8.662;2023-10-09T05:27:25;100369.78;;;13.89;90.12
11041;BME280;5573;49.592;8.662;2023-10-09T05:30:08;100376.34;;;13.93;89.61
11041;BME280;5573;49.592;8.662;2023-10-09T05:33:00;100364.88;;;13.86;89.79
11041;BME280;5573;49.592;8.662;2023-10-09T05:35:42;100374.75;;;13.85;90.30
11041;BME280;5573;49.592;8.662;2023-10-09T05:38:32;100374.00;;;13.78;90.17
11041;BME280;5573;49.592;8.662;2023-10-09T05:41:02;100381.09;;;13.91;89.86
11041;BME280;5573;49.592;8.662;2023-10-09T05:43:53;100377.59;;;14.15;87.74
11041;BME280;5573;49.592;8.662;2023-10-09T05:46:39;100382.44;;;14.06;89.02
11041;BME280;5573;49.592;8.662;2023-10-09T05:49:27;100369.88;;;14.00;89.66
11041;BME280;5573;49.592;8.662;2023-10-09T05:52:12;100376.69;;;14.03;89.64
11041;BME280;5573;49.592;8.662;2023-10-09T05:55:00;100373.56;;;14.06;89.53
11041;BME280;5573;49.592;8.662;2023-10-09T05:57:46;100380.16;;;14.03;89.19
11041;BME280;5573;49.592;8.662;2023-10-09T06:00:31;100379.22;;;14.16;88.53
11041;BME280;5573;49.592;8.662;2023-10-09T06:03:16;100379.81;;;14.18;88.81
11041;BME280;5573;49.592;8.662;2023-10-09T06:05:52;100386.44;;;14.16;89.39
11041;BME280;5573;49.592;8.662;2023-10-09T06:08:31;100381.56;;;14.31;86.80
11041;BME280;5573;49.592;8.662;2023-10-09T06:11:32;100385.78;;;14.45;87.24
11041;BME280;5573;49.592;8.662;2023-10-09T06:14:06;100375.81;;;14.52;86.28
11041;BME280;5573;49.592;8.662;2023-10-09T06:16:41;100382.97;;;14.76;83.84
11041;BME280;5573;49.592;8.662;2023-10-09T06:19:11;100386.78;;;14.69;85.37
11041;BME280;5573;49.592;8.662;2023-10-09T06:21:40;100388.84;;;14.67;85.93
11041;BME280;5573;49.592;8.662;2023-10-09T06:24:23;100387.13;;;14.90;83.04
11041;BME280;5573;49.592;8.662;2023-10-09T06:26:54;100381.97;;;14.89;83.72
11041;BME280;5573;49.592;8.662;2023-10-09T06:29:40;100381.81;;;15.20;79.10
11041;BME280;5573;49.592;8.662;2023-10-09T06:32:18;100377.84;;;15.52;77.43
11041;BME280;5573;49.592;8.662;2023-10-09T06:35:01;100389.88;;;16.03;74.75
11041;BME280;5573;49.592;8.662;2023-10-09T06:37:45;100391.41;;;15.99;77.25
11041;BME280;5573;49.592;8.662;2023-10-09T06:40:32;100395.09;;;15.86;76.84
11041;BME280;5573;49.592;8.662;2023-10-09T06:43:20;100383.00;;;16.07;73.66
11041;BME280;5573;49.592;8.662;2023-10-09T06:45:55;100395.16;;;16.44;71.82
11041;BME280;5573;49.592;8.662;2023-10-09T06:48:25;100387.78;;;16.52;71.77
11041;BME280;5573;49.592;8.662;2023-10-09T06:51:12;100391.53;;;16.50;71.94
11041;BME280;5573;49.592;8.662;2023-10-09T06:54:03;100394.56;;;16.66;70.51
11041;BME280;5573;49.592;8.662;2023-10-09T06:56:33;100398.66;;;16.68;71.06
11041;BME280;5573;49.592;8.662;2023-10-09T06:59:32;100403.56;;;16.71;71.02
11041;BME280;5573;49.592;8.662;2023-10-09T07:02:29;100390.00;;;16.78;70.14
11041;BME280;5573;49.592;8.662;2023-10-09T07:04:58;100396.09;;;16.73;70.82
11041;BME280;5573;49.592;8.662;2023-10-09T07:07:40;100393.84;;;16.82;69.34
11041;BME280;5573;49.592;8.662;2023-10-09T07:10:17;100402.13;;;16.92;70.33
11041;BME280;5573;49.592;8.662;2023-10-09T07:13:00;100406.91;;;16.90;69.29
11041;BME280;5573;49.592;8.662;2023-10-09T07:15:31;100409.16;;;16.93;69.70
11041;BME280;5573;49.592;8.662;2023-10-09T07:18:26;100410.44;;;16.79;69.65
11041;BME280;5573;49.592;8.662;2023-10-09T07:21:14;100414.75;;;16.91;69.16
11041;BME280;5573;49.592;8.662;2023-10-09T07:23:55;100415.81;;;16.79;69.03
11041;BME280;5573;49.592;8.662;2023-10-09T07:26:25;100415.59;;;16.92;68.33
11041;BME280;5573;49.592;8.662;2023-10-09T07:29:04;100425.53;;;16.91;68.47
11041;BME280;5573;49.592;8.662;2023-10-09T07:31:46;100426.16;;;16.82;68.74
11041;BME280;5573;49.592;8.662;2023-10-09T07:34:15;100431.28;;;16.83;68.96
11041;BME280;5573;49.592;8.662;2023-10-09T07:37:15;100431.63;;;16.75;69.14
11041;BME280;5573;49.592;8.662;2023-10-09T07:39:45;100438.09;;;16.74;69.54
11041;BME280;5573;49.592;8.662;2023-10-09T07:42:24;100414.09;;;16.61;69.49
11041;BME280;5573;49.592;8.662;2023-10-09T07:45:11;100428.00;;;16.81;69.15
11041;BME280;5573;49.592;8.662;2023-10-09T07:48:02;100418.91;;;16.71;68.18
11041;BME280;5573;49.592;8.662;2023-10-09T07:50:35;100422.84;;;16.80;69.21
11041;BME280;5573;49.592;8.662;2023-10-09T07:53:15;100390.38;;;16.70;68.62
11041;BME280;5573;49.592;8.662;2023-10-09T07:55:45;100400.06;;;16.71;67.91
11041;BME280;5573;49.592;8.662;2023-10-09T07:58:22;100425.31;;;16.81;67.93
11041;BME280;5573;49.592;8.662;2023-10-09T08:00:53;100428.25;;;16.80;68.25
11041;BME280;5573;49.592;8.662;2023-10-09T08:03:36;100433.81;;;16.90;67.38
11041;BME280;5573;49.592;8.662;2023-10-09T08:06:05;100429.38;;;16.95;67.57
11041;BME280;5573;49.592;8.662;2023-10-09T08:08:57;100425.75;;;16.90;67.89
11041;BME280;5573;49.592;8.662;2023-10-09T08:11:49;100428.56;;;16.95;67.84
11041;BME280;5573;49.592;8.662;2023-10-09T08:14:34;100427.13;;;17.16;66.96
11041;BME280;5573;49.592;8.662;2023-10-09T08:17:12;100432.13;;;17.12;67.13
11041;BME280;5573;49.592;8.662;2023-10-09T08:19:46;100426.84;;;17.29;66.86
11041;BME280;5573;49.592;8.662;2023-10-09T08:22:25;100431.59;;;17.38;66.43
11041;BME280;5573;49.592;8.662;2023-10-09T08:25:11;100437.47;;;17.35;67.08
11041;BME280;5573;49.592;8.662;2023-10-09T08:27:56;100435.06;;;17.51;66.29
11041;BME280;5573;49.592;8.662;2023-10-09T08:30:47;100440.88;;;17.71;65.86
11041;BME280;5573;49.592;8.662;2023-10-09T08:33:30;100441.84;;;17.81;65.64
11041;BME280;5573;49.592;8.662;2023-10-09T08:36:14;100436.97;;;17.78;64.93
11041;BME280;5573;49.592;8.662;2023-10-09T08:38:50;100445.03;;;17.78;64.95
11041;BME280;5573;49.592;8.662;2023-10-09T08:41:18;100443.41;;;17.77;64.37
11041;BME280;5573;49.592;8.662;2023-10-09T08:43:51;100429.38;;;17.75;64.57
11041;BME280;5573;49.592;8.662;2023-10-09T08:46:20;100466.22;;;18.03;65.27
11041;BME280;5573;49.592;8.662;2023-10-09T08:48:48;100471.94;;;18.07;64.61
11041;BME280;5573;49.592;8.662;2023-10-09T08:51:18;100466.47;;;18.18;65.23
11041;BME280;5573;49.592;8.662;2023-10-09T08:53:47;100458.41;;;18.18;64.51
11041;BME280;5573;49.592;8.662;2023-10-09T08:56:17;100459.19;;;18.35;63.70
11041;BME280;5573;49.592;8.662;2023-10-09T08:58:50;100463.94;;;18.28;63.61
11041;BME280;5573;49.592;8.662;2023-10-09T09:01:20;100457.59;;;18.34;63.34
11041;BME280;5573;49.592;8.662;2023-10-09T09:03:49;100467.38;;;18.40;64.37
11041;BME280;5573;49.592;8.662;2023-10-09T09:06:19;100463.03;;;18.39;63.82
11041;BME280;5573;49.592;8.662;2023-10-09T09:08:47;100467.47;;;18.46;63.51
11041;BME280;5573;49.592;8.662;2023-10-09T09:11:15;100469.34;;;18.45;63.17
11041;BME280;5573;49.592;8.662;2023-10-09T09:13:46;100472.06;;;18.62;63.02
11041;BME280;5573;49.592;8.662;2023-10-09T09:16:17;100468.94;;;18.70;63.14
11041;BME280;5573;49.592;8.662;2023-10-09T09:18:50;100460.66;;;18.43;63.13
11041;BME280;5573;49.592;8.662;2023-10-09T09:21:24;100445.72;;;18.35;63.36
11041;BME280;5573;49.592;8.662;2023-10-09T09:23:58;100443.88;;;18.53;63.15
11041;BME280;5573;49.592;8.662;2023-10-09T09:26:33;100454.72;;;18.58;63.80
11041;BME280;5573;49.592;8.662;2023-10-09T09:29:05;100440.75;;;18.61;63.56
11041;BME280;5573;49.592;8.662;2023-10-09T09:31:34;100445.47;;;18.54;65.77
11041;BME280;5573;49.592;8.662;2023-10-09T09:34:06;100446.38;;;18.59;63.59
11041;BME280;5573;49.592;8.662;2023-10-09T09:36:54;100443.19;;;18.62;63.18
11041;BME280;5573;49.592;8.662;2023-10-09T09:39:25;100438.00;;;18.77;63.31
11041;BME280;5573;49.592;8.662;2023-10-09T09:42:11;100470.06;;;18.91;61.57
11041;BME280;5573;49.592;8.662;2023-10-09T09:44:42;100459.00;;;18.92;62.23
11041;BME280;5573;49.592;8.662;2023-10-09T09:47:13;100450.38;;;18.95;61.84
11041;BME280;5573;49.592;8.662;2023-10-09T09:49:51;100463.41;;;18.98;62.15
11041;BME280;5573;49.592;8.662;2023-10-09T09:52:31;100481.59;;;18.86;63.29
11041;BME280;5573;49.592;8.662;2023-10-09T09:55:08;100470.97;;;18.79;63.03
11041;BME280;5573;49.592;8.662;2023-10-09T09:57:44;100475.75;;;18.56;63.07
11041;BME280;5573;49.592;8.662;2023-10-09T10:00:20;100471.22;;;18.45;65.20
11041;BME280;5573;49.592;8.662;2023-10-09T10:03:01;100465.50;;;18.41;64.24
11041;BME280;5573;49.592;8.662;2023-10-09T10:05:33;100459.38;;;18.29;65.20
11041;BME280;5573;49.592;8.662;2023-10-09T10:08:03;100469.94;;;18.30;64.96
11041;BME280;5573;49.592;8.662;2023-10-09T10:10:35;100474.41;;;18.41;64.33
11041;BME280;5573;49.592;8.662;2023-10-09T10:13:05;100477.63;;;18.38;64.40
11041;BME280;5573;49.592;8.662;2023-10-09T10:15:57;100478.94;;;18.53;63.76
11041;BME280;5573;49.592;8.662;2023-10-09T10:18:30;100475.56;;;18.46;64.88
11041;BME280;5573;49.592;8.662;2023-10-09T10:21:12;100467.88;;;18.37;64.95
11041;BME280;5573;49.592;8.662;2023-10-09T10:24:01;100477.50;;;18.50;64.77
11041;BME280;5573;49.592;8.662;2023-10-09T10:26:33;100485.94;;;18.70;64.46
11041;BME280;5573;49.592;8.662;2023-10-09T10:29:14;100491.72;;;18.96;64.04
11041;BME280;5573;49.592;8.662;2023-10-09T10:31:57;100488.78;;;18.97;63.72
11041;BME280;5573;49.592;8.662;2023-10-09T10:34:51;100486.50;;;19.11;63.66
11041;BME280;5573;49.592;8.662;2023-10-09T10:37:34;100474.56;;;19.07;64.33
11041;BME280;5573;49.592;8.662;2023-10-09T10:40:07;100472.19;;;19.10;63.31
11041;BME280;5573;49.592;8.662;2023-10-09T10:42:47;100490.16;;;19.21;63.75
11041;BME280;5573;49.592;8.662;2023-10-09T10:45:32;100495.25;;;19.39;63.16
11041;BME280;5573;49.592;8.662;2023-10-09T10:48:02;100509.59;;;19.62;62.89
11041;BME280;5573;49.592;8.662;2023-10-09T10:50:35;100509.09;;;19.65;62.76
11041;BME280;5573;49.592;8.662;2023-10-09T10:53:11;100508.72;;;19.56;62.80
11041;BME280;5573;49.592;8.662;2023-10-09T10:55:58;100503.13;;;19.63;62.92
11041;BME280;5573;49.592;8.662;2023-10-09T10:58:51;100499.31;;;19.85;61.95
11041;BME280;5573;49.592;8.662;2023-10-09T11:01:38;100497.38;;;20.08;61.19
11041;BME280;5573;49.592;8.662;2023-10-09T11:04:27;100481.28;;;20.23;61.92
11041;BME280;5573;49.592;8.662;2023-10-09T11:07:11;100454.16;;;20.13;60.71
11041;BME280;5573;49.592;8.662;2023-10-09T11:09:46;100444.53;;;20.27;61.13
11041;BME280;5573;49.592;8.662;2023-10-09T11:12:46;100434.25;;;20.29;61.68
11041;BME280;5573;49.592;8.662;2023-10-09T11:15:41;100436.25;;;20.44;60.64
11041;BME280;5573;49.592;8.662;2023-10-09T11:18:14;100425.91;;;20.30;60.71
11041;BME280;5573;49.592;8.662;2023-10-09T11:20:48;100404.06;;;20.10;63.73
11041;BME280;5573;49.592;8.662;2023-10-09T11:23:23;100396.13;;;20.30;61.01
11041;BME280;5573;49.592;8.662;2023-10-09T11:26:04;100394.50;;;20.29;60.85
11041;BME280;5573;49.592;8.662;2023-10-09T11:29:06;100397.69;;;20.26;61.79
11041;BME280;5573;49.592;8.662;2023-10-09T11:31:57;100388.16;;;20.56;59.66
11041;BME280;5573;49.592;8.662;2023-10-09T11:34:26;100384.00;;;20.38;60.95
11041;BME280;5573;49.592;8.662;2023-10-09T11:36:59;100373.19;;;20.38;61.22
11041;BME280;5573;49.592;8.662;2023-10-09T11:39:29;100371.84;;;20.36;61.30
11041;BME280;5573;49.592;8.662;2023-10-09T11:42:03;100392.94;;;20.39;61.43
11041;BME280;5573;49.592;8.662;2023-10-09T11:44:39;100409.75;;;20.93;59.36
11041;BME280;5573;49.592;8.662;2023-10-09T11:47:07;100413.28;;;20.93;58.73
11041;BME280;5573;49.592;8.662;2023-10-09T11:50:01;100418.16;;;20.91;59.39
11041;BME280;5573;49.592;8.662;2023-10-09T11:52:58;100409.16;;;20.80;60.61
11041;BME280;5573;49.592;8.662;2023-10-09T11:55:44;100397.97;;;20.62;60.78
11041;BME280;5573;49.592;8.662;2023-10-09T11:58:16;100394.00;;;20.79;60.77
11041;BME280;5573;49.592;8.662;2023-10-09T12:00:51;100391.03;;;20.86;59.77
11041;BME280;5573;49.592;8.662;2023-10-09T12:03:25;100399.25;;;21.06;59.97
11041;BME280;5573;49.592;8.662;2023-10-09T12:05:57;100386.88;;;21.25;59.45
11041;BME280;5573;49.592;8.662;2023-10-09T12:08:31;100380.97;;;21.54;58.52
11041;BME280;5573;49.592;8.662;2023-10-09T12:10:59;100386.97;;;21.76;57.19
11041;BME280;5573;49.592;8.662;2023-10-09T12:13:35;100381.53;;;21.66;57.11
11041;BME280;5573;49.592;8.662;2023-10-09T12:16:05;100380.72;;;21.86;56.31
11041;BME280;5573;49.592;8.662;2023-10-09T12:18:37;100391.88;;;21.94;56.23
11041;BME280;5573;49.592;8.662;2023-10-09T12:21:06;100379.38;;;21.83;54.94
11041;BME280;5573;49.592;8.662;2023-10-09T12:23:34;100386.19;;;22.01;55.24
11041;BME280;5573;49.592;8.662;2023-10-09T12:26:02;100381.03;;;22.09;52.79
11041;BME280;5573;49.592;8.662;2023-10-09T12:28:31;100377.75;;;22.33;52.59
11041;BME280;5573;49.592;8.662;2023-10-09T12:31:00;100372.50;;;22.61;51.66
11041;BME280;5573;49.592;8.662;2023-10-09T12:33:30;100362.47;;;22.72;49.64
11041;BME280;5573;49.592;8.662;2023-10-09T12:35:58;100372.94;;;22.99;50.69
11041;BME280;5573;49.592;8.662;2023-10-09T12:38:28;100357.47;;;22.89;48.95
11041;BME280;5573;49.592;8.662;2023-10-09T12:41:03;100367.25;;;22.95;50.16
11041;BME280;5573;49.592;8.662;2023-10-09T12:43:35;100364.06;;;22.78;48.70
11041;BME280;5573;49.592;8.662;2023-10-09T12:46:06;100369.72;;;22.92;48.17
11041;BME280;5573;49.592;8.662;2023-10-09T12:48:35;100357.16;;;23.06;47.51
11041;BME280;5573;49.592;8.662;2023-10-09T12:53:33;100349.94;;;22.81;47.37
11041;BME280;5573;49.592;8.662;2023-10-09T12:56:01;100354.84;;;22.64;48.87
11041;BME280;5573;49.592;8.662;2023-10-09T12:58:29;100347.25;;;22.66;48.76
11041;BME280;5573;49.592;8.662;2023-10-09T13:00:58;100347.59;;;22.44;48.92
11041;BME280;5573;49.592;8.662;2023-10-09T13:03:38;100340.16;;;22.75;47.87
11041;BME280;5573;49.592;8.662;2023-10-09T13:06:06;100343.38;;;22.87;48.88
11041;BME280;5573;49.592;8.662;2023-10-09T13:08:37;100334.22;;;22.63;47.50
11041;BME280;5573;49.592;8.662;2023-10-09T13:11:08;100346.09;;;22.82;47.05
11041;BME280;5573;49.592;8.662;2023-10-09T13:13:39;100342.31;;;22.83;47.75
11041;BME280;5573;49.592;8.662;2023-10-09T13:16:09;100335.69;;;23.04;47.59
11041;BME280;5573;49.592;8.662;2023-10-09T13:18:42;100326.44;;;23.00;46.74
11041;BME280;5573;49.592;8.662;2023-10-09T13:21:18;100315.66;;;22.90;47.33
11041;BME280;5573;49.592;8.662;2023-10-09T13:23:46;100317.47;;;23.05;47.61
11041;BME280;5573;49.592;8.662;2023-10-09T13:26:16;100332.25;;;22.89;49.14
11041;BME280;5573;49.592;8.662;2023-10-09T13:29:01;100328.16;;;22.91;48.13
11041;BME280;5573;49.592;8.662;2023-10-09T13:31:30;100288.00;;;22.78;47.59
11041;BME280;5573;49.592;8.662;2023-10-09T13:34:04;100305.41;;;22.77;48.41
11041;BME280;5573;49.592;8.662;2023-10-09T13:36:33;100298.28;;;22.86;47.47
11041;BME280;5573;49.592;8.662;2023-10-09T13:39:04;100295.22;;;22.98;45.96
11041;BME280;5573;49.592;8.662;2023-10-09T13:41:58;100289.69;;;23.13;44.72
11041;BME280;5573;49.592;8.662;2023-10-09T13:44:28;100287.09;;;23.37;44.27
11041;BME280;5573;49.592;8.662;2023-10-09T13:46:58;100282.34;;;23.18;45.18
11041;BME280;5573;49.592;8.662;2023-10-09T13:49:26;100286.06;;;23.28;44.65